Time;durP1;ratioP1;P1;durP2;ratioP2;P2;SDS_P1;SDS_P2;PMS_P1;PMS_P2;Temp;Humidity;BMP_temperature;BMP_pressure;BME280_temperature;BME280_humidity;BME280_pressure;Samples;Min_cycle;Max_cycle;Signal;HPM_P1;HPM_P2
2023/07/07 00:00:46;;;;;;;6.57;2.00;;;18.50;86.00;;;;;;5050364;28;20028;-47
2023/07/07 00:03:11;;;;;;;4.93;1.67;;;18.50;86.60;;;;;;5039863;28;20033;-50
2023/07/07 00:05:37;;;;;;;6.63;2.03;;;18.50;86.90;;;;;;5048367;28;20028;-47
2023/07/07 00:08:02;;;;;;;1.83;1.73;;;18.40;87.20;;;;;;5051693;28;20025;-48
2023/07/07 00:10:28;;;;;;;1.75;1.65;;;18.40;87.70;;;;;;5065061;22;20045;-52
2023/07/07 00:12:53;;;;;;;6.10;1.80;;;18.30;88.00;;;;;;5030529;28;20014;-49
2023/07/07 00:15:19;;;;;;;1.88;1.70;;;18.30;88.60;;;;;;5032336;28;20052;-49
2023/07/07 00:17:47;;;;;;;2.10;1.67;;;18.20;88.80;;;;;;5055129;28;20107;-52
2023/07/07 00:20:14;;;;;;;3.30;1.95;;;18.10;89.20;;;;;;5047066;28;20468;-54
2023/07/07 00:22:40;;;;;;;3.10;2.13;;;18.20;89.60;;;;;;5050138;28;20021;-53
2023/07/07 00:25:07;;;;;;;2.15;1.70;;;18.20;89.80;;;;;;5046954;28;20082;-51
2023/07/07 00:27:34;;;;;;;6.00;1.98;;;18.20;89.60;;;;;;5041590;28;20037;-51
2023/07/07 00:30:00;;;;;;;1.73;1.55;;;18.10;89.80;;;;;;5051391;28;20119;-53
2023/07/07 00:32:25;;;;;;;3.92;2.15;;;18.10;90.00;;;;;;5045988;28;20100;-52
2023/07/07 00:34:51;;;;;;;2.88;2.22;;;18.00;90.20;;;;;;5042208;28;20068;-52
2023/07/07 00:37:16;;;;;;;3.28;1.92;;;17.90;90.40;;;;;;5049413;28;20025;-51
2023/07/07 00:39:42;;;;;;;2.47;2.28;;;17.80;90.80;;;;;;5051283;28;20460;-50
2023/07/07 00:42:10;;;;;;;3.58;1.92;;;17.70;91.00;;;;;;5051359;28;20394;-54
2023/07/07 00:45:12;;;;;;;3.40;2.38;;;17.80;91.10;;;;;;5051121;28;20049;-52
2023/07/07 00:47:42;;;;;;;1.70;1.60;;;17.70;91.30;;;;;;5042458;28;20017;-53
2023/07/07 00:50:10;;;;;;;4.40;1.85;;;17.50;91.80;;;;;;5039316;28;20105;-53
2023/07/07 00:52:38;;;;;;;4.28;2.50;;;17.40;92.20;;;;;;5049396;28;20080;-51
2023/07/07 00:55:04;;;;;;;5.07;1.98;;;17.30;92.50;;;;;;5050788;28;20403;-52
2023/07/07 00:57:29;;;;;;;3.60;2.22;;;17.20;92.70;;;;;;5050679;28;20112;-54
2023/07/07 00:59:55;;;;;;;3.08;2.15;;;17.20;92.80;;;;;;5050977;28;20370;-52
2023/07/07 01:02:26;;;;;;;3.00;2.15;;;17.20;93.00;;;;;;5038247;28;20061;-51
2023/07/07 01:04:58;;;;;;;3.47;1.98;;;17.20;93.20;;;;;;5032398;28;20021;-53
2023/07/07 01:07:31;;;;;;;3.53;1.90;;;17.10;93.40;;;;;;5046973;28;20139;-53
2023/07/07 01:09:57;;;;;;;3.13;2.25;;;17.10;93.70;;;;;;5050923;28;20397;-50
2023/07/07 01:12:22;;;;;;;5.43;2.10;;;17.00;93.80;;;;;;5049612;28;20021;-53
2023/07/07 01:14:49;;;;;;;3.85;2.05;;;17.10;94.00;;;;;;5050875;28;20037;-50
2023/07/07 01:17:29;;;;;;;4.72;2.22;;;17.10;94.20;;;;;;5050318;28;20108;-52
2023/07/07 01:20:12;;;;;;;6.18;2.45;;;17.10;94.30;;;;;;5041414;28;20025;-54
2023/07/07 01:22:38;;;;;;;3.00;2.05;;;17.20;94.40;;;;;;5049294;28;20049;-49
2023/07/07 01:25:17;;;;;;;4.15;2.33;;;17.20;94.40;;;;;;5049205;28;20067;-54
2023/07/07 01:27:58;;;;;;;4.63;2.63;;;17.10;94.50;;;;;;5046614;28;20071;-50
2023/07/07 01:30:29;;;;;;;5.05;1.70;;;17.10;94.70;;;;;;5050939;28;20033;-49
2023/07/07 01:32:55;;;;;;;2.83;2.05;;;17.00;94.90;;;;;;5054635;28;20021;-53
2023/07/07 01:35:22;;;;;;;4.70;2.45;;;16.90;95.10;;;;;;5041923;28;20369;-55
2023/07/07 01:38:26;;;;;;;3.72;2.42;;;16.90;95.30;;;;;;5045765;28;20108;-49
2023/07/07 01:40:58;;;;;;;5.00;2.40;;;16.80;95.60;;;;;;5052763;28;20037;-54
2023/07/07 01:43:30;;;;;;;4.32;2.13;;;16.80;95.90;;;;;;5054319;28;20037;-52
2023/07/07 01:46:12;;;;;;;3.95;2.38;;;16.80;96.10;;;;;;5046150;28;20025;-51
2023/07/07 01:48:50;;;;;;;4.47;2.55;;;16.70;96.30;;;;;;5045907;28;20037;-51
2023/07/07 01:51:18;;;;;;;3.45;3.05;;;16.70;96.60;;;;;;5052916;28;20055;-51
2023/07/07 01:53:46;;;;;;;5.05;2.40;;;16.70;96.80;;;;;;5053979;28;20025;-49
2023/07/07 01:56:17;;;;;;;4.05;2.53;;;16.70;97.00;;;;;;5053190;28;20083;-50
2023/07/07 01:58:44;;;;;;;4.57;2.40;;;16.60;97.10;;;;;;5054036;28;20067;-55
2023/07/07 02:01:10;;;;;;;6.43;2.22;;;16.60;97.30;;;;;;5045470;28;20017;-53
2023/07/07 02:03:36;;;;;;;4.40;2.40;;;16.50;97.70;;;;;;5041753;28;20033;-51
2023/07/07 02:06:01;;;;;;;2.92;2.38;;;16.50;97.90;;;;;;5039961;28;20029;-54
2023/07/07 02:08:27;;;;;;;3.10;2.17;;;16.40;98.10;;;;;;5033930;28;20398;-52
2023/07/07 02:10:52;;;;;;;2.97;2.47;;;16.40;98.50;;;;;;5033778;28;20497;-52
2023/07/07 02:13:18;;;;;;;3.70;2.58;;;16.40;98.70;;;;;;5032685;28;20029;-50
2023/07/07 02:15:43;;;;;;;2.83;2.25;;;16.40;98.90;;;;;;5041900;28;20025;-49
2023/07/07 02:18:08;;;;;;;3.03;2.20;;;16.30;99.10;;;;;;5053818;28;20021;-53
2023/07/07 02:20:34;;;;;;;4.68;2.55;;;16.20;99.40;;;;;;5052501;28;20040;-52
2023/07/07 02:22:59;;;;;;;7.05;2.38;;;16.20;99.70;;;;;;5053525;28;20112;-49
2023/07/07 02:25:25;;;;;;;2.70;2.03;;;16.20;99.90;;;;;;5042616;28;20485;-52
2023/07/07 02:27:50;;;;;;;9.75;3.25;;;16.10;99.90;;;;;;5044719;28;20021;-52
2023/07/07 02:30:16;;;;;;;3.75;2.70;;;16.00;99.90;;;;;;5053384;28;20029;-52
2023/07/07 02:32:42;;;;;;;5.95;2.63;;;15.90;99.90;;;;;;5046611;28;20467;-53
2023/07/07 02:35:07;;;;;;;3.85;2.20;;;15.90;99.90;;;;;;5043324;28;20025;-53
2023/07/07 02:37:33;;;;;;;5.07;2.80;;;15.90;99.90;;;;;;5052238;28;20025;-49
2023/07/07 02:39:59;;;;;;;5.00;3.05;;;15.90;99.90;;;;;;5045631;28;20025;-50
2023/07/07 02:42:25;;;;;;;3.88;2.28;;;15.80;99.90;;;;;;5045076;28;20488;-52
2023/07/07 02:44:50;;;;;;;3.97;2.63;;;15.80;99.90;;;;;;5052020;28;20048;-49
2023/07/07 02:47:16;;;;;;;5.55;2.65;;;15.90;99.90;;;;;;5051286;28;20021;-51
2023/07/07 02:49:42;;;;;;;4.85;2.03;;;16.00;99.90;;;;;;5053040;28;20047;-52
2023/07/07 02:52:08;;;;;;;3.25;2.40;;;16.00;99.90;;;;;;5052779;28;20028;-52
2023/07/07 02:54:34;;;;;;;5.65;2.58;;;16.00;99.90;;;;;;5045802;28;20497;-50
2023/07/07 02:57:00;;;;;;;5.22;2.55;;;15.90;99.90;;;;;;5042769;28;20021;-50
2023/07/07 02:59:26;;;;;;;4.05;2.40;;;15.90;99.90;;;;;;5053138;28;20500;-54
2023/07/07 03:01:51;;;;;;;4.82;2.75;;;15.90;99.90;;;;;;5052845;28;20032;-53
2023/07/07 03:04:17;;;;;;;4.90;3.65;;;15.90;99.90;;;;;;5051411;28;20017;-53
2023/07/07 03:06:42;;;;;;;8.82;2.80;;;15.90;99.90;;;;;;5052059;28;20114;-55
2023/07/07 03:09:09;;;;;;;6.95;2.55;;;15.90;99.90;;;;;;5050611;28;20033;-54
2023/07/07 03:11:34;;;;;;;3.97;2.75;;;15.90;99.90;;;;;;5044326;28;20095;-52
2023/07/07 03:14:00;;;;;;;3.70;2.60;;;15.90;99.90;;;;;;5052627;28;20025;-54
2023/07/07 03:16:32;;;;;;;2.78;2.13;;;15.90;99.90;;;;;;5052000;28;20412;-54
2023/07/07 03:19:03;;;;;;;6.25;3.33;;;15.90;99.90;;;;;;5051319;28;20433;-54
2023/07/07 03:21:31;;;;;;;3.60;2.40;;;15.90;99.90;;;;;;5052369;28;20029;-50
2023/07/07 03:23:57;;;;;;;2.97;2.60;;;15.80;99.90;;;;;;5046942;28;20025;-54
2023/07/07 03:26:24;;;;;;;3.20;2.42;;;15.80;99.90;;;;;;5043260;28;20366;-51
2023/07/07 03:28:50;;;;;;;3.50;2.95;;;15.70;99.90;;;;;;5043741;28;20056;-54
2023/07/07 03:31:17;;;;;;;3.15;2.85;;;15.70;99.90;;;;;;5039633;28;20052;-54
2023/07/07 03:33:45;;;;;;;4.47;2.28;;;15.70;99.90;;;;;;5049968;28;20396;-54
2023/07/07 03:36:12;;;;;;;4.78;2.58;;;15.70;99.90;;;;;;5051537;28;20017;-55
2023/07/07 03:38:38;;;;;;;5.32;2.63;;;15.70;99.90;;;;;;5052089;28;20074;-53
2023/07/07 03:41:04;;;;;;;4.93;3.25;;;15.60;99.90;;;;;;5052005;28;20036;-51
2023/07/07 03:43:33;;;;;;;5.30;3.00;;;15.60;99.90;;;;;;5043886;28;20052;-54
2023/07/07 03:46:00;;;;;;;3.40;2.40;;;15.60;99.90;;;;;;5042556;28;20108;-53
2023/07/07 03:48:26;;;;;;;5.50;2.92;;;15.60;99.90;;;;;;5052285;28;20554;-51
2023/07/07 03:50:56;;;;;;;6.93;2.72;;;15.60;99.90;;;;;;5051298;28;20036;-52
2023/07/07 03:53:21;;;;;;;3.05;2.53;;;15.60;99.90;;;;;;5051951;28;20049;-52
2023/07/07 03:55:46;;;;;;;8.80;3.47;;;15.60;99.90;;;;;;5049843;28;20052;-52
2023/07/07 03:58:12;;;;;;;6.97;2.70;;;15.60;99.90;;;;;;5049474;28;20021;-54
2023/07/07 04:00:37;;;;;;;3.90;2.38;;;15.70;99.90;;;;;;5043292;28;20032;-51
2023/07/07 04:03:03;;;;;;;3.38;2.65;;;15.80;99.90;;;;;;5052437;28;20029;-53
2023/07/07 04:05:28;;;;;;;4.93;3.58;;;15.80;99.90;;;;;;5051437;28;20389;-54
2023/07/07 04:07:54;;;;;;;6.22;2.53;;;15.80;99.90;;;;;;5050275;28;20028;-54
2023/07/07 04:10:19;;;;;;;6.15;2.67;;;15.80;99.90;;;;;;5051596;28;20095;-52
2023/07/07 04:12:45;;;;;;;7.43;2.58;;;15.80;99.90;;;;;;5046775;28;20029;-53
2023/07/07 04:15:11;;;;;;;3.83;2.65;;;15.80;99.90;;;;;;5041522;28;20029;-51
2023/07/07 04:17:36;;;;;;;5.72;2.15;;;15.90;99.90;;;;;;5049927;28;20127;-51
2023/07/07 04:20:03;;;;;;;2.97;2.40;;;15.90;99.90;;;;;;5051391;28;20033;-52
2023/07/07 04:22:30;;;;;;;4.15;2.28;;;15.90;99.90;;;;;;5051375;28;20120;-54
2023/07/07 04:25:17;;;;;;;3.53;2.50;;;15.90;99.90;;;;;;5051281;28;20055;-54
2023/07/07 04:27:43;;;;;;;4.25;2.40;;;16.00;99.90;;;;;;5044074;28;20025;-55
2023/07/07 04:30:10;;;;;;;4.88;2.60;;;16.10;99.90;;;;;;5041576;28;20021;-52
2023/07/07 04:32:36;;;;;;;4.05;2.40;;;16.10;99.90;;;;;;5051454;28;20539;-56
2023/07/07 04:35:03;;;;;;;2.80;2.00;;;16.20;99.90;;;;;;5050001;28;20037;-52
2023/07/07 04:37:29;;;;;;;3.33;2.53;;;16.30;99.90;;;;;;5039636;28;20030;-54
2023/07/07 04:39:55;;;;;;;4.05;2.15;;;16.40;99.90;;;;;;5049111;28;20029;-54
2023/07/07 04:42:20;;;;;;;4.25;2.70;;;16.40;99.90;;;;;;5049101;28;20056;-53
2023/07/07 04:44:46;;;;;;;3.97;2.63;;;16.60;99.90;;;;;;5038431;28;20080;-50
2023/07/07 04:47:11;;;;;;;3.05;2.33;;;16.60;99.90;;;;;;5042340;28;20101;-50
2023/07/07 04:49:37;;;;;;;2.17;2.00;;;16.60;99.90;;;;;;5051267;28;20028;-54
2023/07/07 04:52:02;;;;;;;9.18;2.33;;;16.80;99.90;;;;;;5051050;28;20026;-53
2023/07/07 04:54:28;;;;;;;3.85;1.90;;;16.90;99.90;;;;;;5051151;28;20374;-55
2023/07/07 04:56:54;;;;;;;4.13;2.30;;;17.00;99.90;;;;;;5040359;28;20105;-52
2023/07/07 04:59:19;;;;;;;3.13;1.88;;;17.10;99.90;;;;;;5041484;28;20021;-52
2023/07/07 05:01:45;;;;;;;6.13;2.03;;;17.40;99.90;;;;;;5051796;28;20039;-54
2023/07/07 05:04:11;;;;;;;10.02;2.20;;;17.90;99.30;;;;;;5054993;28;20100;-55
2023/07/07 05:06:38;;;;;;;3.05;2.40;;;18.60;97.90;;;;;;5054280;28;20109;-50
2023/07/07 05:09:05;;;;;;;3.55;2.10;;;19.40;96.50;;;;;;5054941;28;20017;-55
2023/07/07 05:11:33;;;;;;;10.88;2.40;;;20.00;95.10;;;;;;5050743;28;20032;-51
2023/07/07 05:13:59;;;;;;;3.70;2.28;;;20.70;93.90;;;;;;5046504;28;20031;-53
2023/07/07 05:16:27;;;;;;;2.92;2.28;;;21.40;92.40;;;;;;5054111;28;20025;-53
2023/07/07 05:18:53;;;;;;;2.25;1.75;;;21.90;91.40;;;;;;5054774;28;20421;-50
2023/07/07 05:21:22;;;;;;;3.33;1.85;;;22.40;90.80;;;;;;5054594;28;20031;-55
2023/07/07 05:23:47;;;;;;;2.58;2.08;;;22.70;89.00;;;;;;5054627;28;20037;-52
2023/07/07 05:26:13;;;;;;;2.67;1.77;;;23.00;88.30;;;;;;5048800;28;20029;-50
2023/07/07 05:28:38;;;;;;;5.20;2.13;;;23.30;87.10;;;;;;5046056;28;20017;-52
2023/07/07 05:31:08;;;;;;;2.40;1.73;;;23.60;85.50;;;;;;5046373;28;20394;-54
2023/07/07 05:33:34;;;;;;;2.20;2.00;;;23.70;85.20;;;;;;5038828;28;20037;-53
2023/07/07 05:36:02;;;;;;;7.78;2.25;;;24.00;83.90;;;;;;5044586;28;20524;-54
2023/07/07 05:38:29;;;;;;;4.93;2.30;;;24.20;83.30;;;;;;5052738;28;20752;-54
2023/07/07 05:40:55;;;;;;;4.07;2.40;;;24.30;82.30;;;;;;5041644;28;20029;-56
2023/07/07 05:43:22;;;;;;;3.20;1.90;;;24.40;81.90;;;;;;5048081;28;20029;-55
2023/07/07 05:45:54;;;;;;;4.95;1.92;;;24.40;81.30;;;;;;5053396;28;20068;-54
2023/07/07 05:48:20;;;;;;;2.20;2.00;;;24.40;81.50;;;;;;5038156;28;20025;-54
2023/07/07 05:50:45;;;;;;;3.75;2.05;;;24.20;81.80;;;;;;5042783;28;20472;-53
2023/07/07 05:53:11;;;;;;;4.75;2.10;;;24.40;81.50;;;;;;5054253;28;20075;-54
2023/07/07 05:55:37;;;;;;;9.25;2.38;;;24.90;80.80;;;;;;5053296;28;20102;-53
2023/07/07 05:58:03;;;;;;;2.13;1.92;;;25.40;79.60;;;;;;5052709;28;20033;-50
2023/07/07 06:00:30;;;;;;;5.05;2.00;;;25.90;79.00;;;;;;5054095;28;20409;-51
2023/07/07 06:02:57;;;;;;;3.22;2.53;;;26.00;76.70;;;;;;5048197;28;20466;-52
2023/07/07 06:05:23;;;;;;;4.32;1.92;;;26.00;77.00;;;;;;5047268;28;20048;-52
2023/07/07 06:07:50;;;;;;;2.58;1.88;;;25.90;76.90;;;;;;5053560;28;20071;-52
2023/07/07 06:10:16;;;;;;;2.80;2.38;;;26.00;76.20;;;;;;5071103;22;20064;-53
2023/07/07 06:12:42;;;;;;;2.83;2.20;;;25.90;76.70;;;;;;5032425;28;20037;-51
2023/07/07 06:15:08;;;;;;;5.15;1.88;;;26.00;76.20;;;;;;5031525;28;20512;-47
2023/07/07 06:17:34;;;;;;;2.45;2.25;;;26.20;76.00;;;;;;5038580;28;20535;-51
2023/07/07 06:19:59;;;;;;;4.63;2.50;;;26.10;75.90;;;;;;5045316;28;20044;-48
2023/07/07 06:22:25;;;;;;;3.00;2.17;;;26.10;76.10;;;;;;5053671;28;20080;-47
2023/07/07 06:24:52;;;;;;;4.57;2.10;;;26.30;75.80;;;;;;5053393;28;20032;-51
2023/07/07 06:27:18;;;;;;;3.33;1.80;;;26.40;75.20;;;;;;5051470;28;20021;-44
2023/07/07 06:29:43;;;;;;;4.07;2.35;;;26.80;75.30;;;;;;5053466;28;20092;-47
2023/07/07 06:32:09;;;;;;;2.88;1.77;;;27.40;72.80;;;;;;5046334;28;20499;-49
2023/07/07 06:34:35;;;;;;;3.15;2.00;;;27.40;72.70;;;;;;5044759;28;20025;-50
2023/07/07 06:37:00;;;;;;;2.60;2.13;;;27.60;72.90;;;;;;5052705;28;20059;-52
2023/07/07 06:39:27;;;;;;;4.05;2.08;;;27.90;72.00;;;;;;5051569;28;20473;-51
2023/07/07 06:41:53;;;;;;;3.08;2.05;;;28.10;71.80;;;;;;5042846;28;20555;-50
2023/07/07 06:44:19;;;;;;;2.70;2.08;;;28.70;70.50;;;;;;5052569;28;20112;-50
2023/07/07 06:46:44;;;;;;;3.47;2.03;;;28.90;69.50;;;;;;5047265;28;20434;-48
2023/07/07 06:49:10;;;;;;;5.03;2.00;;;28.60;69.90;;;;;;5038388;28;20028;-51
2023/07/07 06:51:36;;;;;;;5.03;2.33;;;28.80;69.60;;;;;;5038782;28;20079;-47
2023/07/07 06:54:02;;;;;;;12.80;2.58;;;29.00;69.60;;;;;;5042626;28;20124;-47
2023/07/07 06:56:27;;;;;;;3.15;1.90;;;28.80;69.00;;;;;;5046464;28;20036;-50
2023/07/07 06:58:53;;;;;;;5.35;2.28;;;29.10;69.40;;;;;;5053042;28;20029;-46
2023/07/07 07:01:18;;;;;;;10.32;2.10;;;29.10;68.30;;;;;;5053019;28;20025;-46
2023/07/07 07:03:44;;;;;;;4.97;2.17;;;29.40;68.10;;;;;;5052843;28;20051;-46
2023/07/07 07:06:11;;;;;;;6.43;2.17;;;29.40;67.40;;;;;;5052373;28;20545;-49
2023/07/07 07:08:37;;;;;;;5.65;2.70;;;29.40;68.20;;;;;;5044426;28;20104;-46
2023/07/07 07:11:02;;;;;;;6.25;2.05;;;29.40;67.60;;;;;;5043108;28;20117;-49
2023/07/07 07:13:27;;;;;;;4.65;2.13;;;29.50;67.70;;;;;;5052834;28;20103;-47
2023/07/07 07:15:54;;;;;;;5.75;2.38;;;30.10;66.70;;;;;;5052022;28;20037;-49
2023/07/07 07:18:19;;;;;;;5.60;2.20;;;30.80;66.50;;;;;;5041705;28;20527;-49
2023/07/07 07:20:49;;;;;;;11.43;1.83;;;31.30;64.80;;;;;;5043338;28;20021;-48
2023/07/07 07:23:15;;;;;;;9.05;2.22;;;31.30;63.70;;;;;;5052605;28;20069;-51
2023/07/07 07:25:42;;;;;;;3.17;1.85;;;31.10;63.50;;;;;;5051058;28;20025;-53
2023/07/07 07:28:08;;;;;;;3.38;1.73;;;30.70;64.10;;;;;;5052564;28;20017;-48
2023/07/07 07:30:34;;;;;;;8.25;2.08;;;30.90;63.60;;;;;;5052230;28;20021;-50
2023/07/07 07:33:03;;;;;;;15.77;2.30;;;30.60;64.20;;;;;;5045766;28;20168;-47
2023/07/07 07:35:29;;;;;;;11.52;2.20;;;30.50;64.40;;;;;;5046139;28;20457;-50
2023/07/07 07:37:54;;;;;;;5.70;1.83;;;30.90;63.50;;;;;;5047244;28;20029;-48
2023/07/07 07:40:23;;;;;;;5.65;2.47;;;31.20;64.00;;;;;;5031143;28;20697;-48
2023/07/07 07:42:48;;;;;;;6.45;1.83;;;31.30;62.90;;;;;;5039482;28;20025;-45
2023/07/07 07:45:18;;;;;;;3.40;2.17;;;31.50;63.00;;;;;;5051510;28;20113;-46
2023/07/07 07:47:45;;;;;;;2.30;1.70;;;31.70;61.40;;;;;;5051990;28;20021;-50
2023/07/07 07:50:11;;;;;;;4.15;1.75;;;31.30;61.90;;;;;;5051821;28;20104;-48
2023/07/07 07:52:37;;;;;;;2.33;1.77;;;30.80;61.90;;;;;;5043328;28;20041;-45
2023/07/07 07:55:02;;;;;;;1.65;1.52;;;30.40;63.30;;;;;;5037809;28;20037;-46
2023/07/07 07:57:28;;;;;;;3.03;1.80;;;31.20;62.10;;;;;;5039370;28;20032;-48
2023/07/07 07:59:53;;;;;;;4.25;1.73;;;31.70;62.00;;;;;;5039836;28;20082;-47
2023/07/07 08:02:19;;;;;;;2.03;1.77;;;32.20;60.80;;;;;;5044805;28;20546;-46
2023/07/07 08:04:44;;;;;;;2.40;2.13;;;32.30;60.20;;;;;;5051572;28;20028;-47
2023/07/07 08:07:10;;;;;;;1.92;1.52;;;32.60;59.70;;;;;;5051140;28;20397;-51
2023/07/07 08:09:35;;;;;;;2.65;1.77;;;32.10;59.40;;;;;;5050491;28;20409;-47
2023/07/07 08:12:03;;;;;;;2.38;1.80;;;31.90;59.60;;;;;;5041683;28;20535;-47
2023/07/07 08:14:30;;;;;;;3.65;1.77;;;31.60;59.40;;;;;;5045352;28;20029;-51
2023/07/07 08:17:02;;;;;;;3.17;2.25;;;32.00;60.00;;;;;;5041709;28;20044;-47
2023/07/07 08:19:29;;;;;;;2.72;1.73;;;32.10;59.40;;;;;;5045300;28;20104;-47
2023/07/07 08:21:57;;;;;;;3.35;2.00;;;31.60;59.60;;;;;;5051537;28;20112;-51
2023/07/07 08:24:23;;;;;;;4.20;2.05;;;31.30;59.80;;;;;;5051581;28;20036;-48
2023/07/07 08:26:49;;;;;;;3.38;1.75;;;30.70;61.00;;;;;;5050688;28;20021;-46
2023/07/07 08:29:15;;;;;;;3.70;1.95;;;30.30;61.20;;;;;;5051569;28;20377;-44
2023/07/07 08:31:40;;;;;;;3.15;2.10;;;30.20;61.60;;;;;;5046585;28;20060;-46
2023/07/07 08:34:06;;;;;;;2.15;1.60;;;30.20;62.30;;;;;;5042914;28;20480;-46
2023/07/07 08:36:31;;;;;;;3.28;2.03;;;30.40;62.00;;;;;;5039637;28;20520;-47
2023/07/07 08:39:09;;;;;;;5.07;2.00;;;29.70;61.10;;;;;;5043111;28;20032;-45
2023/07/07 08:41:35;;;;;;;2.78;2.15;;;29.30;62.50;;;;;;5051374;28;20029;-46
2023/07/07 08:44:01;;;;;;;4.82;1.85;;;29.00;62.80;;;;;;5044043;28;20036;-47
2023/07/07 08:46:42;;;;;;;2.85;1.77;;;29.00;63.30;;;;;;5042063;28;20021;-50
2023/07/07 08:49:32;;;;;;;5.05;2.47;;;29.00;62.50;;;;;;5051420;28;20032;-48
2023/07/07 08:52:09;;;;;;;2.28;2.08;;;28.80;62.90;;;;;;5037553;28;20308;-50
2023/07/07 08:54:46;;;;;;;4.47;2.10;;;28.60;62.90;;;;;;5045604;28;20515;-52
2023/07/07 08:57:13;;;;;;;3.00;1.80;;;28.50;64.00;;;;;;5050760;28;20389;-50
2023/07/07 09:00:00;;;;;;;7.75;2.30;;;28.70;64.20;;;;;;5051254;28;20017;-50
2023/07/07 09:03:00;;;;;;;2.25;2.05;;;28.90;64.30;;;;;;5051013;28;20418;-53
2023/07/07 09:05:46;;;;;;;7.13;1.88;;;29.20;62.90;;;;;;5049806;28;20448;-48
2023/07/07 09:08:35;;;;;;;3.25;1.95;;;29.20;62.70;;;;;;5039379;28;20497;-48
2023/07/07 09:11:20;;;;;;;3.28;1.98;;;29.20;62.50;;;;;;5042533;28;20212;-53
2023/07/07 09:13:48;;;;;;;;;;;29.30;62.60;;;;;;5051446;28;20024;-52
2023/07/07 09:16:28;;;;;;;3.72;1.95;;;29.60;61.50;;;;;;5050372;28;20291;-48
2023/07/07 09:19:07;;;;;;;3.53;2.30;;;29.50;61.70;;;;;;5051182;28;20035;-47
2023/07/07 09:22:08;;;;;;;4.97;2.13;;;29.30;61.10;;;;;;5051123;28;20078;-48
2023/07/07 09:24:49;;;;;;;2.33;2.10;;;29.10;61.50;;;;;;5038764;28;20509;-51
2023/07/07 09:27:28;;;;;;;2.45;2.10;;;29.10;61.50;;;;;;5030225;28;20029;-48
2023/07/07 09:30:05;;;;;;;5.80;3.40;;;29.10;61.60;;;;;;5030603;28;20099;-51
2023/07/07 09:32:31;;;;;;;2.20;1.90;;;29.10;62.90;;;;;;5030798;28;20022;-48
2023/07/07 09:34:56;;;;;;;6.53;2.28;;;29.20;61.50;;;;;;5030810;28;20066;-53
2023/07/07 09:37:45;;;;;;;3.95;2.53;;;29.10;61.40;;;;;;5036304;28;20026;-51
2023/07/07 09:40:23;;;;;;;6.28;2.10;;;29.10;61.50;;;;;;5046519;28;20036;-53
2023/07/07 09:43:33;;;;;;;4.28;1.98;;;29.20;62.00;;;;;;5034813;28;20025;-50
2023/07/07 09:46:08;;;;;;;4.28;2.50;;;29.00;60.40;;;;;;4990957;28;20500;-49
2023/07/07 09:48:55;;;;;;;7.07;1.98;;;29.00;60.50;;;;;;5011790;28;20432;-51
2023/07/07 09:51:24;;;;;;;6.05;2.45;;;29.20;61.00;;;;;;5014398;28;20030;-49
2023/07/07 09:53:50;;;;;;;7.15;2.60;;;29.10;60.40;;;;;;5014525;28;20033;-50
2023/07/07 09:56:21;;;;;;;2.97;2.08;;;29.10;60.80;;;;;;5032432;28;20087;-47
2023/07/07 09:59:06;;;;;;;3.17;1.90;;;29.20;60.90;;;;;;5042048;28;20436;-48
2023/07/07 10:01:36;;;;;;;4.15;2.35;;;29.00;61.70;;;;;;5014361;28;20022;-51
2023/07/07 10:04:08;;;;;;;6.97;2.50;;;28.60;61.30;;;;;;5014564;28;20509;-53
2023/07/07 10:06:48;;;;;;;3.10;2.38;;;28.70;61.00;;;;;;5012274;28;20040;-50
2023/07/07 10:09:15;;;;;;;4.47;2.67;;;28.70;61.40;;;;;;5014254;28;20049;-51
2023/07/07 10:11:42;;;;;;;3.63;2.25;;;28.50;61.90;;;;;;5015866;28;20028;-48
2023/07/07 10:14:11;;;;;;;7.78;2.30;;;28.40;62.40;;;;;;5043417;28;20029;-52
2023/07/07 10:16:43;;;;;;;4.82;2.40;;;28.40;62.60;;;;;;5053214;28;20052;-52
2023/07/07 10:19:11;;;;;;;3.80;2.10;;;28.60;62.50;;;;;;5053883;28;20036;-51
2023/07/07 10:21:37;;;;;;;2.20;1.98;;;28.60;62.00;;;;;;5053670;28;20021;-47
2023/07/07 10:24:03;;;;;;;2.97;2.10;;;28.70;61.90;;;;;;5053604;28;20115;-48
2023/07/07 10:26:29;;;;;;;5.13;2.92;;;28.90;62.60;;;;;;5047278;28;20463;-49
2023/07/07 10:29:02;;;;;;;3.75;2.63;;;28.90;61.80;;;;;;5041766;28;20033;-52
2023/07/07 10:31:28;;;;;;;6.10;2.97;;;28.70;62.20;;;;;;5013922;28;20026;-53
2023/07/07 10:33:59;;;;;;;3.80;2.30;;;28.80;61.90;;;;;;5013719;28;20402;-53
2023/07/07 10:36:31;;;;;;;4.63;2.70;;;28.80;62.30;;;;;;5013192;28;20029;-48
2023/07/07 10:38:58;;;;;;;3.95;2.80;;;28.80;62.90;;;;;;5013790;28;20026;-49
2023/07/07 10:41:27;;;;;;;5.25;2.70;;;28.70;61.90;;;;;;5021959;28;20526;-50
2023/07/07 10:43:53;;;;;;;3.63;2.88;;;28.80;62.30;;;;;;5044745;28;20057;-49
2023/07/07 10:46:19;;;;;;;4.20;3.00;;;29.00;62.70;;;;;;5052590;28;20051;-46
2023/07/07 10:48:46;;;;;;;3.45;2.70;;;29.00;62.60;;;;;;5053232;28;20025;-48
2023/07/07 10:51:39;;;;;;;5.88;2.80;;;28.90;62.40;;;;;;5041657;28;20105;-46
2023/07/07 10:54:05;;;;;;;3.58;3.25;;;28.70;63.20;;;;;;5050382;28;20025;-50
2023/07/07 10:56:38;;;;;;;5.45;3.65;;;28.70;63.50;;;;;;5046805;28;20037;-47
2023/07/07 10:59:27;;;;;;;6.00;2.95;;;28.50;63.40;;;;;;5041704;28;20034;-52
2023/07/07 11:01:58;;;;;;;9.10;2.78;;;28.50;63.90;;;;;;5052879;28;20047;-52
2023/07/07 11:04:33;;;;;;;6.43;2.63;;;28.50;64.70;;;;;;5052541;28;20036;-48
2023/07/07 11:07:23;;;;;;;5.85;2.85;;;28.50;64.20;;;;;;5035245;28;20404;-53
2023/07/07 11:09:59;;;;;;;4.10;3.70;;;28.60;63.90;;;;;;5035998;28;20030;-47
2023/07/07 11:12:49;;;;;;;3.97;2.70;;;28.60;63.70;;;;;;5052391;28;20516;-48
2023/07/07 11:15:45;;;;;;;3.78;3.22;;;28.60;64.40;;;;;;5052073;28;20477;-47
2023/07/07 11:18:33;;;;;;;4.93;3.60;;;28.70;63.90;;;;;;5052295;28;20388;-49
2023/07/07 11:21:18;;;;;;;6.95;3.60;;;28.70;64.30;;;;;;5033794;28;20038;-47
2023/07/07 11:24:12;;;;;;;7.00;3.75;;;28.60;62.60;;;;;;5040824;28;20033;-46
2023/07/07 11:27:02;;;;;;;5.65;3.55;;;28.60;63.10;;;;;;5026660;28;20082;-51
2023/07/07 11:29:42;;;;;;;4.53;3.17;;;28.70;63.30;;;;;;5036237;28;20058;-51
2023/07/07 11:32:18;;;;;;;8.02;4.00;;;28.60;63.40;;;;;;5052171;28;20013;-47
2023/07/07 11:35:22;;;;;;;4.45;3.78;;;28.60;63.80;;;;;;5052024;28;20053;-48
2023/07/07 11:38:02;;;;;;;5.45;3.75;;;28.60;62.70;;;;;;5051859;28;20396;-48
2023/07/07 11:40:42;;;;;;;8.07;4.38;;;28.60;62.60;;;;;;5047041;28;20092;-49
2023/07/07 11:43:10;;;;;;;6.28;3.95;;;28.60;62.60;;;;;;5041165;28;20029;-47
2023/07/07 11:45:40;;;;;;;5.47;3.38;;;28.50;62.60;;;;;;5051265;28;20025;-45
2023/07/07 11:48:34;;;;;;;5.07;3.58;;;28.60;63.10;;;;;;5052164;28;20496;-48
2023/07/07 11:51:11;;;;;;;5.75;5.07;;;28.50;63.10;;;;;;5052013;28;20405;-46
2023/07/07 11:54:00;;;;;;;4.57;3.70;;;28.50;60.20;;;;;;5051692;28;20017;-47
2023/07/07 11:56:42;;;;;;;7.53;5.15;;;28.50;61.50;;;;;;5044305;28;20021;-50
2023/07/07 11:59:10;;;;;;;11.68;5.28;;;28.50;60.00;;;;;;5049173;28;20065;-48
2023/07/07 12:01:43;;;;;;;9.18;6.15;;;28.60;60.50;;;;;;5051709;28;20021;-47
2023/07/07 12:04:33;;;;;;;7.47;4.93;;;28.60;61.20;;;;;;5051742;28;20025;-46
2023/07/07 12:07:02;;;;;;;7.88;5.07;;;28.60;62.50;;;;;;5046074;28;20041;-46
2023/07/07 12:09:39;;;;;;;7.07;5.30;;;28.70;62.50;;;;;;5043078;28;20032;-51
2023/07/07 12:12:20;;;;;;;7.00;5.75;;;28.80;60.10;;;;;;5036785;22;20053;-45
2023/07/07 12:14:55;;;;;;;8.75;6.35;;;29.00;58.90;;;;;;5012810;28;20018;-48
2023/07/07 12:17:27;;;;;;;7.13;6.05;;;28.90;57.20;;;;;;5021315;28;20030;-47
2023/07/07 12:20:04;;;;;;;9.80;6.43;;;29.00;57.80;;;;;;5031424;28;20022;-42
2023/07/07 12:22:37;;;;;;;12.55;5.50;;;29.00;58.60;;;;;;5026875;28;20057;-44
2023/07/07 12:25:15;;;;;;;7.15;6.13;;;29.10;58.70;;;;;;5018269;28;21905;-47
2023/07/07 12:27:46;;;;;;;8.20;5.40;;;29.10;60.20;;;;;;4991684;28;20034;-47
2023/07/07 12:30:30;;;;;;;6.38;5.43;;;29.10;60.70;;;;;;4991970;28;20023;-46
2023/07/07 12:32:57;;;;;;;10.48;6.70;;;29.10;60.60;;;;;;4991976;28;20023;-49
2023/07/07 12:35:44;;;;;;;10.38;6.53;;;29.10;59.10;;;;;;4991475;28;20026;-47
2023/07/07 12:38:24;;;;;;;7.90;6.78;;;29.10;58.20;;;;;;5011608;28;20084;-44
2023/07/07 12:40:49;;;;;;;11.10;7.05;;;29.10;58.70;;;;;;5025862;28;20025;-45
2023/07/07 12:43:22;;;;;;;8.30;6.82;;;29.20;58.50;;;;;;5031284;28;20083;-48
2023/07/07 12:45:50;;;;;;;7.72;6.65;;;29.20;58.20;;;;;;5030394;28;20065;-47
2023/07/07 12:48:19;;;;;;;9.90;7.47;;;29.20;57.70;;;;;;5029790;28;20028;-46
2023/07/07 12:50:46;;;;;;;9.50;6.65;;;29.10;58.80;;;;;;5031027;28;20061;-44
2023/07/07 12:53:21;;;;;;;9.88;6.20;;;29.10;58.60;;;;;;5025111;28;20021;-49
2023/07/07 12:56:22;;;;;;;11.02;5.30;;;29.10;60.20;;;;;;5024426;28;20067;-48
2023/07/07 12:58:49;;;;;;;8.02;5.70;;;29.20;60.30;;;;;;5029918;28;20057;-45
2023/07/07 13:01:14;;;;;;;7.72;6.00;;;29.20;59.60;;;;;;5027729;28;20336;-47